sensor_id;sensor_type;location;lat;lon;timestamp;P1;durP1;ratioP1;P2;durP2;ratioP2
32523;SDS011;18965;52.242;20.886;2023-08-06T00:00:16;22.08;;;10.55;;
32523;SDS011;18965;52.242;20.886;2023-08-06T00:02:41;25.20;;;11.98;;
32523;SDS011;18965;52.242;20.886;2023-08-06T00:05:07;18.77;;;9.98;;
32523;SDS011;18965;52.242;20.886;2023-08-06T00:07:33;17.35;;;9.52;;
32523;SDS011;18965;52.242;20.886;2023-08-06T00:09:59;20.05;;;10.63;;
32523;SDS011;18965;52.242;20.886;2023-08-06T00:15:06;17.63;;;10.30;;
32523;SDS011;18965;52.242;20.886;2023-08-06T00:17:33;30.45;;;13.88;;
32523;SDS011;18965;52.242;20.886;2023-08-06T00:19:59;17.33;;;10.38;;
32523;SDS011;18965;52.242;20.886;2023-08-06T00:22:29;17.67;;;9.52;;
32523;SDS011;18965;52.242;20.886;2023-08-06T00:24:56;19.58;;;9.98;;
32523;SDS011;18965;52.242;20.886;2023-08-06T00:27:23;15.05;;;10.02;;
32523;SDS011;18965;52.242;20.886;2023-08-06T00:29:49;20.42;;;11.57;;
32523;SDS011;18965;52.242;20.886;2023-08-06T00:32:15;13.82;;;9.48;;
32523;SDS011;18965;52.242;20.886;2023-08-06T00:34:41;15.27;;;9.57;;
32523;SDS011;18965;52.242;20.886;2023-08-06T00:37:06;19.45;;;10.07;;
32523;SDS011;18965;52.242;20.886;2023-08-06T00:39:32;12.48;;;8.85;;
32523;SDS011;18965;52.242;20.886;2023-08-06T00:41:58;14.95;;;8.45;;
32523;SDS011;18965;52.242;20.886;2023-08-06T00:44:23;12.07;;;7.72;;
32523;SDS011;18965;52.242;20.886;2023-08-06T00:46:49;11.90;;;8.02;;
32523;SDS011;18965;52.242;20.886;2023-08-06T00:49:15;10.73;;;7.88;;
32523;SDS011;18965;52.242;20.886;2023-08-06T00:51:41;12.40;;;8.30;;
32523;SDS011;18965;52.242;20.886;2023-08-06T00:54:08;13.80;;;8.23;;
32523;SDS011;18965;52.242;20.886;2023-08-06T00:56:35;10.15;;;7.07;;
32523;SDS011;18965;52.242;20.886;2023-08-06T00:59:02;14.35;;;8.70;;
32523;SDS011;18965;52.242;20.886;2023-08-06T01:01:29;11.98;;;7.90;;
32523;SDS011;18965;52.242;20.886;2023-08-06T01:03:55;11.75;;;7.38;;
32523;SDS011;18965;52.242;20.886;2023-08-06T01:06:23;9.15;;;6.85;;
32523;SDS011;18965;52.242;20.886;2023-08-06T01:08:58;18.52;;;9.88;;
32523;SDS011;18965;52.242;20.886;2023-08-06T01:11:31;13.18;;;8.20;;
32523;SDS011;18965;52.242;20.886;2023-08-06T01:14:08;12.73;;;7.63;;
32523;SDS011;18965;52.242;20.886;2023-08-06T01:16:56;14.95;;;8.55;;
32523;SDS011;18965;52.242;20.886;2023-08-06T01:19:23;12.98;;;7.70;;
32523;SDS011;18965;52.242;20.886;2023-08-06T01:21:49;14.55;;;7.32;;
32523;SDS011;18965;52.242;20.886;2023-08-06T01:24:15;13.10;;;8.13;;
32523;SDS011;18965;52.242;20.886;2023-08-06T01:26:45;17.33;;;9.23;;
32523;SDS011;18965;52.242;20.886;2023-08-06T01:29:44;16.63;;;8.77;;
32523;SDS011;18965;52.242;20.886;2023-08-06T01:32:35;10.23;;;6.82;;
32523;SDS011;18965;52.242;20.886;2023-08-06T01:35:04;13.82;;;8.73;;
32523;SDS011;18965;52.242;20.886;2023-08-06T01:37:30;18.25;;;9.13;;
32523;SDS011;18965;52.242;20.886;2023-08-06T01:39:57;16.60;;;9.10;;
32523;SDS011;18965;52.242;20.886;2023-08-06T01:42:23;13.40;;;6.97;;
32523;SDS011;18965;52.242;20.886;2023-08-06T01:44:48;18.85;;;8.30;;
32523;SDS011;18965;52.242;20.886;2023-08-06T01:47:14;13.73;;;7.68;;
32523;SDS011;18965;52.242;20.886;2023-08-06T01:49:40;12.80;;;7.45;;
32523;SDS011;18965;52.242;20.886;2023-08-06T01:52:05;14.35;;;7.75;;
32523;SDS011;18965;52.242;20.886;2023-08-06T01:54:31;13.68;;;7.97;;
32523;SDS011;18965;52.242;20.886;2023-08-06T01:56:57;21.52;;;8.98;;
32523;SDS011;18965;52.242;20.886;2023-08-06T01:59:23;15.55;;;8.15;;
32523;SDS011;18965;52.242;20.886;2023-08-06T02:01:49;12.63;;;7.32;;
32523;SDS011;18965;52.242;20.886;2023-08-06T02:04:15;11.27;;;7.47;;
32523;SDS011;18965;52.242;20.886;2023-08-06T02:06:40;13.88;;;7.28;;
32523;SDS011;18965;52.242;20.886;2023-08-06T02:09:06;14.93;;;7.63;;
32523;SDS011;18965;52.242;20.886;2023-08-06T02:11:32;11.93;;;7.10;;
32523;SDS011;18965;52.242;20.886;2023-08-06T02:13:57;14.55;;;7.43;;
32523;SDS011;18965;52.242;20.886;2023-08-06T02:16:23;17.08;;;8.57;;
32523;SDS011;18965;52.242;20.886;2023-08-06T02:18:49;14.75;;;7.18;;
32523;SDS011;18965;52.242;20.886;2023-08-06T02:21:14;10.23;;;6.55;;
32523;SDS011;18965;52.242;20.886;2023-08-06T02:23:40;13.43;;;6.88;;
32523;SDS011;18965;52.242;20.886;2023-08-06T02:26:06;12.63;;;7.10;;
32523;SDS011;18965;52.242;20.886;2023-08-06T02:28:31;10.43;;;6.75;;
32523;SDS011;18965;52.242;20.886;2023-08-06T02:30:57;11.27;;;6.30;;
32523;SDS011;18965;52.242;20.886;2023-08-06T02:33:23;11.77;;;6.78;;
32523;SDS011;18965;52.242;20.886;2023-08-06T02:35:49;14.70;;;6.93;;
32523;SDS011;18965;52.242;20.886;2023-08-06T02:38:14;12.10;;;6.57;;
32523;SDS011;18965;52.242;20.886;2023-08-06T02:40:44;12.00;;;6.90;;
32523;SDS011;18965;52.242;20.886;2023-08-06T02:45:36;10.10;;;6.85;;
32523;SDS011;18965;52.242;20.886;2023-08-06T02:48:02;9.27;;;6.15;;
32523;SDS011;18965;52.242;20.886;2023-08-06T02:50:28;11.45;;;6.75;;
32523;SDS011;18965;52.242;20.886;2023-08-06T02:52:53;10.90;;;6.57;;
32523;SDS011;18965;52.242;20.886;2023-08-06T02:55:19;12.40;;;7.03;;
32523;SDS011;18965;52.242;20.886;2023-08-06T02:57:45;10.35;;;6.88;;
32523;SDS011;18965;52.242;20.886;2023-08-06T03:00:11;10.23;;;6.68;;
32523;SDS011;18965;52.242;20.886;2023-08-06T03:02:37;12.23;;;7.03;;
32523;SDS011;18965;52.242;20.886;2023-08-06T03:05:02;11.38;;;7.18;;
32523;SDS011;18965;52.242;20.886;2023-08-06T03:07:28;12.57;;;7.43;;
32523;SDS011;18965;52.242;20.886;2023-08-06T03:09:54;12.07;;;7.68;;
32523;SDS011;18965;52.242;20.886;2023-08-06T03:12:20;15.55;;;7.57;;
32523;SDS011;18965;52.242;20.886;2023-08-06T03:14:46;10.48;;;6.70;;
32523;SDS011;18965;52.242;20.886;2023-08-06T03:17:12;12.85;;;7.43;;
32523;SDS011;18965;52.242;20.886;2023-08-06T03:19:37;12.32;;;7.93;;
32523;SDS011;18965;52.242;20.886;2023-08-06T03:22:03;15.98;;;8.32;;
32523;SDS011;18965;52.242;20.886;2023-08-06T03:24:29;12.43;;;8.02;;
32523;SDS011;18965;52.242;20.886;2023-08-06T03:26:55;11.95;;;7.85;;
32523;SDS011;18965;52.242;20.886;2023-08-06T03:29:21;15.45;;;9.00;;
32523;SDS011;18965;52.242;20.886;2023-08-06T03:31:47;16.45;;;8.60;;
32523;SDS011;18965;52.242;20.886;2023-08-06T03:34:13;14.00;;;8.68;;
32523;SDS011;18965;52.242;20.886;2023-08-06T03:36:38;18.20;;;9.40;;
32523;SDS011;18965;52.242;20.886;2023-08-06T03:39:04;14.63;;;9.13;;
32523;SDS011;18965;52.242;20.886;2023-08-06T03:41:30;12.82;;;8.65;;
32523;SDS011;18965;52.242;20.886;2023-08-06T03:43:55;21.67;;;10.30;;
32523;SDS011;18965;52.242;20.886;2023-08-06T03:46:21;15.88;;;9.63;;
32523;SDS011;18965;52.242;20.886;2023-08-06T03:48:47;17.20;;;10.40;;
32523;SDS011;18965;52.242;20.886;2023-08-06T03:51:12;16.10;;;9.77;;
32523;SDS011;18965;52.242;20.886;2023-08-06T03:53:38;17.73;;;9.73;;
32523;SDS011;18965;52.242;20.886;2023-08-06T03:56:04;20.52;;;10.30;;
32523;SDS011;18965;52.242;20.886;2023-08-06T03:58:30;15.75;;;10.00;;
32523;SDS011;18965;52.242;20.886;2023-08-06T04:01:02;15.63;;;9.73;;
32523;SDS011;18965;52.242;20.886;2023-08-06T04:03:28;18.60;;;10.43;;
32523;SDS011;18965;52.242;20.886;2023-08-06T04:05:54;15.48;;;10.15;;
32523;SDS011;18965;52.242;20.886;2023-08-06T04:08:20;14.75;;;9.98;;
32523;SDS011;18965;52.242;20.886;2023-08-06T04:10:49;17.73;;;10.38;;
32523;SDS011;18965;52.242;20.886;2023-08-06T04:13:16;17.15;;;10.45;;
32523;SDS011;18965;52.242;20.886;2023-08-06T04:15:42;15.88;;;10.45;;
32523;SDS011;18965;52.242;20.886;2023-08-06T04:18:07;16.05;;;10.27;;
32523;SDS011;18965;52.242;20.886;2023-08-06T04:20:33;21.98;;;11.75;;
32523;SDS011;18965;52.242;20.886;2023-08-06T04:22:59;15.98;;;10.98;;
32523;SDS011;18965;52.242;20.886;2023-08-06T04:25:30;15.98;;;11.23;;
32523;SDS011;18965;52.242;20.886;2023-08-06T04:27:56;18.30;;;10.60;;
32523;SDS011;18965;52.242;20.886;2023-08-06T04:30:22;18.63;;;11.68;;
32523;SDS011;18965;52.242;20.886;2023-08-06T04:32:49;16.48;;;10.98;;
32523;SDS011;18965;52.242;20.886;2023-08-06T04:35:15;22.58;;;13.02;;
32523;SDS011;18965;52.242;20.886;2023-08-06T04:37:41;16.20;;;11.18;;
32523;SDS011;18965;52.242;20.886;2023-08-06T04:40:07;18.42;;;12.00;;
32523;SDS011;18965;52.242;20.886;2023-08-06T04:42:33;17.33;;;11.70;;
32523;SDS011;18965;52.242;20.886;2023-08-06T04:45:00;16.80;;;11.93;;
32523;SDS011;18965;52.242;20.886;2023-08-06T04:47:28;17.05;;;11.73;;
32523;SDS011;18965;52.242;20.886;2023-08-06T04:49:53;20.40;;;12.65;;
32523;SDS011;18965;52.242;20.886;2023-08-06T04:52:19;24.27;;;13.05;;
32523;SDS011;18965;52.242;20.886;2023-08-06T04:54:46;17.23;;;12.00;;
32523;SDS011;18965;52.242;20.886;2023-08-06T04:57:11;19.33;;;11.65;;
32523;SDS011;18965;52.242;20.886;2023-08-06T04:59:38;16.33;;;11.73;;
32523;SDS011;18965;52.242;20.886;2023-08-06T05:02:04;27.83;;;12.35;;
32523;SDS011;18965;52.242;20.886;2023-08-06T05:04:30;18.38;;;12.77;;
32523;SDS011;18965;52.242;20.886;2023-08-06T05:06:56;17.77;;;11.50;;
32523;SDS011;18965;52.242;20.886;2023-08-06T05:09:21;18.13;;;12.40;;
32523;SDS011;18965;52.242;20.886;2023-08-06T05:11:47;22.13;;;12.10;;
32523;SDS011;18965;52.242;20.886;2023-08-06T05:14:14;15.90;;;11.50;;
32523;SDS011;18965;52.242;20.886;2023-08-06T05:16:39;18.48;;;11.68;;
32523;SDS011;18965;52.242;20.886;2023-08-06T05:19:05;19.10;;;10.65;;
32523;SDS011;18965;52.242;20.886;2023-08-06T05:21:31;15.73;;;11.35;;
32523;SDS011;18965;52.242;20.886;2023-08-06T05:23:56;14.23;;;10.90;;
32523;SDS011;18965;52.242;20.886;2023-08-06T05:26:22;13.18;;;10.48;;
32523;SDS011;18965;52.242;20.886;2023-08-06T05:28:48;18.42;;;11.70;;
32523;SDS011;18965;52.242;20.886;2023-08-06T05:31:14;18.13;;;11.98;;
32523;SDS011;18965;52.242;20.886;2023-08-06T05:33:40;15.82;;;12.13;;
32523;SDS011;18965;52.242;20.886;2023-08-06T05:36:05;15.68;;;11.32;;
32523;SDS011;18965;52.242;20.886;2023-08-06T05:38:31;14.32;;;11.20;;
32523;SDS011;18965;52.242;20.886;2023-08-06T05:40:57;12.00;;;10.38;;
32523;SDS011;18965;52.242;20.886;2023-08-06T05:43:23;16.05;;;10.57;;
32523;SDS011;18965;52.242;20.886;2023-08-06T05:45:49;13.65;;;11.13;;
32523;SDS011;18965;52.242;20.886;2023-08-06T05:48:15;12.70;;;9.75;;
32523;SDS011;18965;52.242;20.886;2023-08-06T05:50:41;15.52;;;10.68;;
32523;SDS011;18965;52.242;20.886;2023-08-06T05:53:07;16.00;;;11.35;;
32523;SDS011;18965;52.242;20.886;2023-08-06T05:55:33;12.73;;;10.30;;
32523;SDS011;18965;52.242;20.886;2023-08-06T05:57:59;14.73;;;10.15;;
32523;SDS011;18965;52.242;20.886;2023-08-06T06:00:25;13.80;;;9.63;;
32523;SDS011;18965;52.242;20.886;2023-08-06T06:02:51;13.38;;;9.85;;
32523;SDS011;18965;52.242;20.886;2023-08-06T06:05:16;15.10;;;10.32;;
32523;SDS011;18965;52.242;20.886;2023-08-06T06:07:42;13.23;;;9.70;;
32523;SDS011;18965;52.242;20.886;2023-08-06T06:10:08;12.23;;;10.80;;
32523;SDS011;18965;52.242;20.886;2023-08-06T06:12:34;8.75;;;7.85;;
32523;SDS011;18965;52.242;20.886;2023-08-06T06:15:00;11.90;;;8.75;;
32523;SDS011;18965;52.242;20.886;2023-08-06T06:17:26;12.07;;;8.52;;
32523;SDS011;18965;52.242;20.886;2023-08-06T06:19:52;11.85;;;8.63;;
32523;SDS011;18965;52.242;20.886;2023-08-06T06:22:18;10.80;;;8.05;;
32523;SDS011;18965;52.242;20.886;2023-08-06T06:24:44;12.65;;;7.80;;
32523;SDS011;18965;52.242;20.886;2023-08-06T06:27:09;11.30;;;8.05;;
32523;SDS011;18965;52.242;20.886;2023-08-06T06:29:35;13.88;;;7.88;;
32523;SDS011;18965;52.242;20.886;2023-08-06T06:32:01;11.02;;;7.60;;
32523;SDS011;18965;52.242;20.886;2023-08-06T06:34:27;10.95;;;8.27;;
32523;SDS011;18965;52.242;20.886;2023-08-06T06:36:52;12.02;;;7.70;;
32523;SDS011;18965;52.242;20.886;2023-08-06T06:39:18;10.63;;;7.88;;
32523;SDS011;18965;52.242;20.886;2023-08-06T06:41:44;8.43;;;7.53;;
32523;SDS011;18965;52.242;20.886;2023-08-06T06:44:09;10.80;;;7.60;;
32523;SDS011;18965;52.242;20.886;2023-08-06T06:46:35;11.30;;;7.45;;
32523;SDS011;18965;52.242;20.886;2023-08-06T06:49:01;9.13;;;7.90;;
32523;SDS011;18965;52.242;20.886;2023-08-06T06:51:27;14.98;;;7.93;;
32523;SDS011;18965;52.242;20.886;2023-08-06T06:53:52;8.45;;;7.25;;
32523;SDS011;18965;52.242;20.886;2023-08-06T06:56:18;9.73;;;7.22;;
32523;SDS011;18965;52.242;20.886;2023-08-06T06:58:44;9.07;;;7.47;;
32523;SDS011;18965;52.242;20.886;2023-08-06T07:01:09;8.80;;;6.82;;
32523;SDS011;18965;52.242;20.886;2023-08-06T07:03:36;11.30;;;6.75;;
32523;SDS011;18965;52.242;20.886;2023-08-06T07:06:02;12.73;;;6.97;;
32523;SDS011;18965;52.242;20.886;2023-08-06T07:08:28;8.30;;;7.05;;
32523;SDS011;18965;52.242;20.886;2023-08-06T07:11:04;13.43;;;7.10;;
32523;SDS011;18965;52.242;20.886;2023-08-06T07:13:31;9.57;;;6.93;;
32523;SDS011;18965;52.242;20.886;2023-08-06T07:15:57;8.90;;;7.43;;
32523;SDS011;18965;52.242;20.886;2023-08-06T07:18:23;16.77;;;7.18;;
32523;SDS011;18965;52.242;20.886;2023-08-06T07:20:50;13.63;;;6.82;;
32523;SDS011;18965;52.242;20.886;2023-08-06T07:23:16;9.57;;;6.72;;
32523;SDS011;18965;52.242;20.886;2023-08-06T07:25:43;10.25;;;7.20;;
32523;SDS011;18965;52.242;20.886;2023-08-06T07:28:12;9.50;;;7.32;;
32523;SDS011;18965;52.242;20.886;2023-08-06T07:30:39;12.48;;;7.18;;
32523;SDS011;18965;52.242;20.886;2023-08-06T07:33:05;13.07;;;7.85;;
32523;SDS011;18965;52.242;20.886;2023-08-06T07:35:31;8.10;;;7.22;;
32523;SDS011;18965;52.242;20.886;2023-08-06T07:37:57;9.75;;;7.28;;
32523;SDS011;18965;52.242;20.886;2023-08-06T07:40:23;9.77;;;7.45;;
32523;SDS011;18965;52.242;20.886;2023-08-06T07:42:49;9.82;;;7.20;;
32523;SDS011;18965;52.242;20.886;2023-08-06T07:45:15;12.30;;;7.30;;
32523;SDS011;18965;52.242;20.886;2023-08-06T07:47:41;9.90;;;7.40;;
32523;SDS011;18965;52.242;20.886;2023-08-06T07:50:08;10.70;;;6.88;;
32523;SDS011;18965;52.242;20.886;2023-08-06T07:52:34;10.20;;;7.30;;
32523;SDS011;18965;52.242;20.886;2023-08-06T07:55:00;9.80;;;7.20;;
32523;SDS011;18965;52.242;20.886;2023-08-06T07:57:30;7.57;;;6.85;;
32523;SDS011;18965;52.242;20.886;2023-08-06T08:02:25;14.77;;;7.40;;
32523;SDS011;18965;52.242;20.886;2023-08-06T08:05:00;9.63;;;7.32;;
32523;SDS011;18965;52.242;20.886;2023-08-06T08:07:26;8.90;;;7.30;;
32523;SDS011;18965;52.242;20.886;2023-08-06T08:09:54;12.57;;;7.00;;
32523;SDS011;18965;52.242;20.886;2023-08-06T08:12:19;8.82;;;7.10;;
32523;SDS011;18965;52.242;20.886;2023-08-06T08:14:45;9.00;;;7.05;;
32523;SDS011;18965;52.242;20.886;2023-08-06T08:17:11;10.23;;;7.70;;
32523;SDS011;18965;52.242;20.886;2023-08-06T08:19:37;11.32;;;7.18;;
32523;SDS011;18965;52.242;20.886;2023-08-06T08:22:03;11.63;;;7.57;;
32523;SDS011;18965;52.242;20.886;2023-08-06T08:24:29;7.97;;;7.03;;
32523;SDS011;18965;52.242;20.886;2023-08-06T08:26:55;10.77;;;7.15;;
32523;SDS011;18965;52.242;20.886;2023-08-06T08:29:21;10.10;;;7.22;;
32523;SDS011;18965;52.242;20.886;2023-08-06T08:31:50;10.48;;;7.20;;
32523;SDS011;18965;52.242;20.886;2023-08-06T08:34:16;12.85;;;7.40;;
32523;SDS011;18965;52.242;20.886;2023-08-06T08:36:43;10.32;;;7.07;;
32523;SDS011;18965;52.242;20.886;2023-08-06T08:39:11;10.32;;;7.50;;
32523;SDS011;18965;52.242;20.886;2023-08-06T08:41:38;9.35;;;7.07;;
32523;SDS011;18965;52.242;20.886;2023-08-06T08:44:05;16.70;;;7.47;;
32523;SDS011;18965;52.242;20.886;2023-08-06T08:46:35;9.85;;;7.18;;
32523;SDS011;18965;52.242;20.886;2023-08-06T08:49:05;7.97;;;6.95;;
32523;SDS011;18965;52.242;20.886;2023-08-06T08:51:32;9.27;;;7.18;;
32523;SDS011;18965;52.242;20.886;2023-08-06T08:54:00;9.55;;;7.25;;
32523;SDS011;18965;52.242;20.886;2023-08-06T08:56:28;11.05;;;7.45;;
32523;SDS011;18965;52.242;20.886;2023-08-06T08:58:54;9.95;;;7.57;;
32523;SDS011;18965;52.242;20.886;2023-08-06T09:03:50;11.73;;;7.20;;
32523;SDS011;18965;52.242;20.886;2023-08-06T09:06:17;8.70;;;7.20;;
32523;SDS011;18965;52.242;20.886;2023-08-06T09:08:54;8.88;;;7.18;;
32523;SDS011;18965;52.242;20.886;2023-08-06T09:11:31;12.88;;;7.30;;
32523;SDS011;18965;52.242;20.886;2023-08-06T09:14:08;9.45;;;7.60;;
32523;SDS011;18965;52.242;20.886;2023-08-06T09:16:35;8.90;;;6.87;;
32523;SDS011;18965;52.242;20.886;2023-08-06T09:19:07;8.20;;;6.60;;
32523;SDS011;18965;52.242;20.886;2023-08-06T09:21:36;9.32;;;6.78;;
32523;SDS011;18965;52.242;20.886;2023-08-06T09:24:11;8.43;;;6.53;;
32523;SDS011;18965;52.242;20.886;2023-08-06T09:26:41;8.35;;;7.05;;
32523;SDS011;18965;52.242;20.886;2023-08-06T09:29:09;7.53;;;6.55;;
32523;SDS011;18965;52.242;20.886;2023-08-06T09:31:52;11.88;;;6.75;;
32523;SDS011;18965;52.242;20.886;2023-08-06T09:36:50;10.02;;;6.40;;
32523;SDS011;18965;52.242;20.886;2023-08-06T09:39:35;8.45;;;6.55;;
32523;SDS011;18965;52.242;20.886;2023-08-06T09:42:03;8.43;;;6.13;;
32523;SDS011;18965;52.242;20.886;2023-08-06T09:44:32;7.65;;;6.05;;
32523;SDS011;18965;52.242;20.886;2023-08-06T09:46:59;9.32;;;6.47;;
32523;SDS011;18965;52.242;20.886;2023-08-06T09:49:39;9.77;;;6.32;;
32523;SDS011;18965;52.242;20.886;2023-08-06T09:52:13;9.82;;;5.95;;
32523;SDS011;18965;52.242;20.886;2023-08-06T09:54:41;10.43;;;6.13;;
32523;SDS011;18965;52.242;20.886;2023-08-06T09:57:08;7.32;;;6.10;;
32523;SDS011;18965;52.242;20.886;2023-08-06T09:59:36;7.75;;;5.95;;
32523;SDS011;18965;52.242;20.886;2023-08-06T10:02:05;10.48;;;5.57;;
32523;SDS011;18965;52.242;20.886;2023-08-06T10:04:37;8.60;;;5.90;;
32523;SDS011;18965;52.242;20.886;2023-08-06T10:07:03;11.80;;;6.70;;
32523;SDS011;18965;52.242;20.886;2023-08-06T10:09:29;7.55;;;6.00;;
32523;SDS011;18965;52.242;20.886;2023-08-06T10:11:55;9.27;;;6.18;;
32523;SDS011;18965;52.242;20.886;2023-08-06T10:14:25;9.38;;;5.47;;
32523;SDS011;18965;52.242;20.886;2023-08-06T10:16:57;7.07;;;5.88;;
32523;SDS011;18965;52.242;20.886;2023-08-06T10:19:24;8.30;;;5.70;;
32523;SDS011;18965;52.242;20.886;2023-08-06T10:24:51;9.20;;;5.75;;
32523;SDS011;18965;52.242;20.886;2023-08-06T10:27:22;8.13;;;6.15;;
32523;SDS011;18965;52.242;20.886;2023-08-06T10:30:41;7.57;;;5.70;;
32523;SDS011;18965;52.242;20.886;2023-08-06T10:32:54;8.18;;;5.75;;
32523;SDS011;18965;52.242;20.886;2023-08-06T10:35:29;11.50;;;5.93;;
32523;SDS011;18965;52.242;20.886;2023-08-06T10:38:18;8.18;;;5.88;;
32523;SDS011;18965;52.242;20.886;2023-08-06T10:43:32;8.32;;;5.13;;
32523;SDS011;18965;52.242;20.886;2023-08-06T10:46:00;6.45;;;5.20;;
32523;SDS011;18965;52.242;20.886;2023-08-06T10:48:44;9.43;;;5.68;;
32523;SDS011;18965;52.242;20.886;2023-08-06T10:51:13;6.18;;;5.40;;
32523;SDS011;18965;52.242;20.886;2023-08-06T10:53:44;5.78;;;5.20;;
32523;SDS011;18965;52.242;20.886;2023-08-06T10:56:12;6.80;;;5.07;;
32523;SDS011;18965;52.242;20.886;2023-08-06T10:58:56;9.60;;;6.00;;
32523;SDS011;18965;52.242;20.886;2023-08-06T11:01:23;8.82;;;5.32;;
32523;SDS011;18965;52.242;20.886;2023-08-06T11:03:52;8.52;;;5.07;;
32523;SDS011;18965;52.242;20.886;2023-08-06T11:06:21;7.05;;;5.10;;
32523;SDS011;18965;52.242;20.886;2023-08-06T11:08:57;9.02;;;5.13;;
32523;SDS011;18965;52.242;20.886;2023-08-06T11:11:23;8.98;;;5.25;;
32523;SDS011;18965;52.242;20.886;2023-08-06T11:13:49;7.00;;;5.38;;
32523;SDS011;18965;52.242;20.886;2023-08-06T11:16:20;7.53;;;5.30;;
32523;SDS011;18965;52.242;20.886;2023-08-06T11:18:51;5.60;;;4.90;;
32523;SDS011;18965;52.242;20.886;2023-08-06T11:21:25;6.82;;;5.53;;
32523;SDS011;18965;52.242;20.886;2023-08-06T11:23:51;5.50;;;5.00;;
32523;SDS011;18965;52.242;20.886;2023-08-06T11:26:23;8.15;;;5.03;;
32523;SDS011;18965;52.242;20.886;2023-08-06T11:28:49;7.75;;;5.18;;
32523;SDS011;18965;52.242;20.886;2023-08-06T11:31:19;6.93;;;4.93;;
32523;SDS011;18965;52.242;20.886;2023-08-06T11:33:54;8.47;;;5.03;;
32523;SDS011;18965;52.242;20.886;2023-08-06T11:36:30;8.65;;;4.53;;
32523;SDS011;18965;52.242;20.886;2023-08-06T11:38:59;6.97;;;4.90;;
32523;SDS011;18965;52.242;20.886;2023-08-06T11:41:40;9.98;;;5.10;;
32523;SDS011;18965;52.242;20.886;2023-08-06T11:44:10;9.80;;;4.90;;
32523;SDS011;18965;52.242;20.886;2023-08-06T11:46:50;7.00;;;4.65;;
32523;SDS011;18965;52.242;20.886;2023-08-06T11:49:36;5.72;;;4.68;;
32523;SDS011;18965;52.242;20.886;2023-08-06T11:52:21;5.15;;;4.28;;
32523;SDS011;18965;52.242;20.886;2023-08-06T11:57:33;6.68;;;4.72;;
32523;SDS011;18965;52.242;20.886;2023-08-06T12:00:02;7.45;;;4.80;;
32523;SDS011;18965;52.242;20.886;2023-08-06T12:02:30;10.90;;;7.00;;
32523;SDS011;18965;52.242;20.886;2023-08-06T12:05:10;8.48;;;7.68;;
32523;SDS011;18965;52.242;20.886;2023-08-06T12:07:37;8.20;;;5.03;;
32523;SDS011;18965;52.242;20.886;2023-08-06T12:10:06;8.75;;;5.82;;
32523;SDS011;18965;52.242;20.886;2023-08-06T12:12:35;5.60;;;5.00;;
32523;SDS011;18965;52.242;20.886;2023-08-06T12:15:06;5.03;;;4.53;;
32523;SDS011;18965;52.242;20.886;2023-08-06T12:17:33;4.70;;;4.30;;
32523;SDS011;18965;52.242;20.886;2023-08-06T12:19:59;7.07;;;4.40;;
32523;SDS011;18965;52.242;20.886;2023-08-06T12:22:25;5.25;;;4.57;;
32523;SDS011;18965;52.242;20.886;2023-08-06T12:24:51;6.70;;;4.47;;
32523;SDS011;18965;52.242;20.886;2023-08-06T12:27:20;8.05;;;7.22;;
32523;SDS011;18965;52.242;20.886;2023-08-06T12:29:49;31.92;;;28.42;;
32523;SDS011;18965;52.242;20.886;2023-08-06T12:32:15;11.98;;;10.85;;
32523;SDS011;18965;52.242;20.886;2023-08-06T12:34:41;9.02;;;5.30;;
32523;SDS011;18965;52.242;20.886;2023-08-06T12:37:08;6.32;;;4.88;;
32523;SDS011;18965;52.242;20.886;2023-08-06T12:39:34;7.65;;;5.20;;
32523;SDS011;18965;52.242;20.886;2023-08-06T12:42:01;6.82;;;5.50;;
32523;SDS011;18965;52.242;20.886;2023-08-06T12:44:28;8.00;;;5.85;;
32523;SDS011;18965;52.242;20.886;2023-08-06T12:46:59;6.35;;;5.63;;
32523;SDS011;18965;52.242;20.886;2023-08-06T12:49:25;6.47;;;5.32;;
32523;SDS011;18965;52.242;20.886;2023-08-06T12:51:54;6.45;;;4.95;;
32523;SDS011;18965;52.242;20.886;2023-08-06T12:54:25;9.70;;;5.30;;
32523;SDS011;18965;52.242;20.886;2023-08-06T12:56:51;8.82;;;5.72;;
32523;SDS011;18965;52.242;20.886;2023-08-06T12:59:17;6.63;;;5.80;;
32523;SDS011;18965;52.242;20.886;2023-08-06T13:01:52;6.18;;;5.20;;
32523;SDS011;18965;52.242;20.886;2023-08-06T13:04:18;5.35;;;4.80;;
32523;SDS011;18965;52.242;20.886;2023-08-06T13:06:50;5.95;;;4.57;;
32523;SDS011;18965;52.242;20.886;2023-08-06T13:09:16;12.40;;;5.15;;
32523;SDS011;18965;52.242;20.886;2023-08-06T13:11:42;6.13;;;5.05;;
32523;SDS011;18965;52.242;20.886;2023-08-06T13:14:11;5.90;;;5.18;;
32523;SDS011;18965;52.242;20.886;2023-08-06T13:16:38;5.32;;;4.75;;
32523;SDS011;18965;52.242;20.886;2023-08-06T13:19:08;7.13;;;4.65;;
32523;SDS011;18965;52.242;20.886;2023-08-06T13:24:26;8.52;;;4.28;;
32523;SDS011;18965;52.242;20.886;2023-08-06T13:26:52;7.32;;;4.70;;
32523;SDS011;18965;52.242;20.886;2023-08-06T13:29:18;7.88;;;4.90;;
32523;SDS011;18965;52.242;20.886;2023-08-06T13:31:44;7.22;;;4.72;;
32523;SDS011;18965;52.242;20.886;2023-08-06T13:34:13;6.45;;;4.40;;
32523;SDS011;18965;52.242;20.886;2023-08-06T13:36:41;4.72;;;4.20;;
32523;SDS011;18965;52.242;20.886;2023-08-06T13:39:09;4.85;;;3.95;;
32523;SDS011;18965;52.242;20.886;2023-08-06T13:41:35;9.85;;;4.50;;
32523;SDS011;18965;52.242;20.886;2023-08-06T13:44:28;4.80;;;4.15;;
32523;SDS011;18965;52.242;20.886;2023-08-06T13:53:24;4.68;;;4.28;;
32523;SDS011;18965;52.242;20.886;2023-08-06T13:59:40;4.55;;;4.05;;
32523;SDS011;18965;52.242;20.886;2023-08-06T14:05:33;5.03;;;4.15;;
32523;SDS011;18965;52.242;20.886;2023-08-06T14:11:21;5.50;;;4.32;;
32523;SDS011;18965;52.242;20.886;2023-08-06T14:14:35;5.43;;;4.35;;
32523;SDS011;18965;52.242;20.886;2023-08-06T14:20:10;7.93;;;4.50;;
32523;SDS011;18965;52.242;20.886;2023-08-06T14:22:57;6.65;;;4.72;;
32523;SDS011;18965;52.242;20.886;2023-08-06T14:26:06;5.93;;;4.30;;
32523;SDS011;18965;52.242;20.886;2023-08-06T14:28:55;4.40;;;4.00;;
32523;SDS011;18965;52.242;20.886;2023-08-06T14:35:08;4.53;;;4.03;;
32523;SDS011;18965;52.242;20.886;2023-08-06T14:38:09;4.50;;;3.97;;
32523;SDS011;18965;52.242;20.886;2023-08-06T14:44:48;7.28;;;3.72;;
32523;SDS011;18965;52.242;20.886;2023-08-06T14:47:17;4.00;;;3.58;;
32523;SDS011;18965;52.242;20.886;2023-08-06T14:49:43;5.35;;;3.90;;
32523;SDS011;18965;52.242;20.886;2023-08-06T14:52:09;4.57;;;3.75;;
32523;SDS011;18965;52.242;20.886;2023-08-06T14:54:38;6.10;;;3.65;;
32523;SDS011;18965;52.242;20.886;2023-08-06T14:57:04;5.95;;;3.28;;
32523;SDS011;18965;52.242;20.886;2023-08-06T14:59:30;4.50;;;3.10;;
32523;SDS011;18965;52.242;20.886;2023-08-06T15:01:56;2.80;;;2.60;;
32523;SDS011;18965;52.242;20.886;2023-08-06T15:04:24;4.72;;;2.50;;
32523;SDS011;18965;52.242;20.886;2023-08-06T15:06:50;2.63;;;2.35;;
32523;SDS011;18965;52.242;20.886;2023-08-06T15:09:16;2.83;;;2.30;;
32523;SDS011;18965;52.242;20.886;2023-08-06T15:11:42;4.18;;;2.45;;
32523;SDS011;18965;52.242;20.886;2023-08-06T15:14:08;3.53;;;2.00;;
32523;SDS011;18965;52.242;20.886;2023-08-06T15:16:33;2.97;;;2.00;;
32523;SDS011;18965;52.242;20.886;2023-08-06T15:19:00;2.40;;;1.83;;
32523;SDS011;18965;52.242;20.886;2023-08-06T15:21:28;2.08;;;1.60;;
32523;SDS011;18965;52.242;20.886;2023-08-06T15:23:54;3.47;;;1.60;;